sensor_id;sensor_type;location;lat;lon;timestamp;P1;durP1;ratioP1;P2;durP2;ratioP2
67902;SDS011;54708;43.612;1.568;2023-12-07T00:01:17;22.10;;;14.07;;
67902;SDS011;54708;43.612;1.568;2023-12-07T00:03:42;32.20;;;18.17;;
67902;SDS011;54708;43.612;1.568;2023-12-07T00:06:08;34.72;;;19.67;;
67902;SDS011;54708;43.612;1.568;2023-12-07T00:08:33;27.58;;;16.83;;
67902;SDS011;54708;43.612;1.568;2023-12-07T00:10:58;24.23;;;13.82;;
67902;SDS011;54708;43.612;1.568;2023-12-07T00:13:24;21.75;;;11.77;;
67902;SDS011;54708;43.612;1.568;2023-12-07T00:15:49;14.18;;;10.10;;
67902;SDS011;54708;43.612;1.568;2023-12-07T00:18:14;16.00;;;10.02;;
67902;SDS011;54708;43.612;1.568;2023-12-07T00:20:40;21.95;;;11.13;;
67902;SDS011;54708;43.612;1.568;2023-12-07T00:23:05;27.30;;;15.25;;
67902;SDS011;54708;43.612;1.568;2023-12-07T00:25:31;22.30;;;13.68;;
67902;SDS011;54708;43.612;1.568;2023-12-07T00:27:56;28.67;;;13.95;;
67902;SDS011;54708;43.612;1.568;2023-12-07T00:30:21;19.55;;;12.50;;
67902;SDS011;54708;43.612;1.568;2023-12-07T00:32:47;15.27;;;9.95;;
67902;SDS011;54708;43.612;1.568;2023-12-07T00:35:12;20.50;;;11.60;;
67902;SDS011;54708;43.612;1.568;2023-12-07T00:37:39;15.00;;;8.38;;
67902;SDS011;54708;43.612;1.568;2023-12-07T00:40:05;13.95;;;7.70;;
67902;SDS011;54708;43.612;1.568;2023-12-07T00:42:30;14.27;;;7.75;;
67902;SDS011;54708;43.612;1.568;2023-12-07T00:44:56;14.73;;;7.15;;
67902;SDS011;54708;43.612;1.568;2023-12-07T00:47:21;15.40;;;7.00;;
67902;SDS011;54708;43.612;1.568;2023-12-07T00:49:47;13.88;;;7.47;;
67902;SDS011;54708;43.612;1.568;2023-12-07T00:52:12;11.90;;;7.95;;
67902;SDS011;54708;43.612;1.568;2023-12-07T00:54:38;11.35;;;7.68;;
67902;SDS011;54708;43.612;1.568;2023-12-07T00:57:04;15.05;;;8.30;;
67902;SDS011;54708;43.612;1.568;2023-12-07T00:59:30;11.68;;;8.25;;
67902;SDS011;54708;43.612;1.568;2023-12-07T01:01:59;11.65;;;7.57;;
67902;SDS011;54708;43.612;1.568;2023-12-07T01:04:28;15.93;;;9.02;;
67902;SDS011;54708;43.612;1.568;2023-12-07T01:06:54;11.88;;;7.82;;
67902;SDS011;54708;43.612;1.568;2023-12-07T01:09:19;14.38;;;9.00;;
67902;SDS011;54708;43.612;1.568;2023-12-07T01:11:45;13.10;;;7.45;;
67902;SDS011;54708;43.612;1.568;2023-12-07T01:14:10;13.93;;;7.75;;
67902;SDS011;54708;43.612;1.568;2023-12-07T01:16:36;10.25;;;7.57;;
67902;SDS011;54708;43.612;1.568;2023-12-07T01:19:02;15.73;;;7.82;;
67902;SDS011;54708;43.612;1.568;2023-12-07T01:21:27;12.85;;;6.72;;
67902;SDS011;54708;43.612;1.568;2023-12-07T01:23:53;13.13;;;7.65;;
67902;SDS011;54708;43.612;1.568;2023-12-07T01:26:18;13.23;;;7.50;;
67902;SDS011;54708;43.612;1.568;2023-12-07T01:28:43;10.32;;;6.78;;
67902;SDS011;54708;43.612;1.568;2023-12-07T01:31:09;10.00;;;6.63;;
67902;SDS011;54708;43.612;1.568;2023-12-07T01:33:34;10.80;;;6.53;;
67902;SDS011;54708;43.612;1.568;2023-12-07T01:35:59;11.73;;;6.00;;
67902;SDS011;54708;43.612;1.568;2023-12-07T01:38:25;10.65;;;6.82;;
67902;SDS011;54708;43.612;1.568;2023-12-07T01:40:50;8.40;;;5.15;;
67902;SDS011;54708;43.612;1.568;2023-12-07T01:43:15;8.48;;;5.28;;
67902;SDS011;54708;43.612;1.568;2023-12-07T01:45:41;11.40;;;5.50;;
67902;SDS011;54708;43.612;1.568;2023-12-07T01:48:06;9.50;;;5.35;;
67902;SDS011;54708;43.612;1.568;2023-12-07T01:50:31;9.93;;;6.07;;
67902;SDS011;54708;43.612;1.568;2023-12-07T01:53:00;10.35;;;5.82;;
67902;SDS011;54708;43.612;1.568;2023-12-07T01:55:26;9.77;;;5.40;;
67902;SDS011;54708;43.612;1.568;2023-12-07T01:57:52;8.70;;;5.38;;
67902;SDS011;54708;43.612;1.568;2023-12-07T02:00:18;9.75;;;5.80;;
67902;SDS011;54708;43.612;1.568;2023-12-07T02:02:44;12.20;;;7.18;;
67902;SDS011;54708;43.612;1.568;2023-12-07T02:05:10;15.77;;;6.43;;
67902;SDS011;54708;43.612;1.568;2023-12-07T02:07:37;14.10;;;5.60;;
67902;SDS011;54708;43.612;1.568;2023-12-07T02:10:05;9.00;;;5.78;;
67902;SDS011;54708;43.612;1.568;2023-12-07T02:12:31;9.85;;;5.82;;
67902;SDS011;54708;43.612;1.568;2023-12-07T02:14:57;9.27;;;6.32;;
67902;SDS011;54708;43.612;1.568;2023-12-07T02:17:29;9.95;;;5.80;;
67902;SDS011;54708;43.612;1.568;2023-12-07T02:22:55;15.82;;;6.47;;
67902;SDS011;54708;43.612;1.568;2023-12-07T02:28:28;13.48;;;6.88;;
67902;SDS011;54708;43.612;1.568;2023-12-07T02:30:53;11.52;;;6.28;;
67902;SDS011;54708;43.612;1.568;2023-12-07T02:33:18;12.35;;;7.90;;
67902;SDS011;54708;43.612;1.568;2023-12-07T02:35:44;15.10;;;7.00;;
67902;SDS011;54708;43.612;1.568;2023-12-07T02:38:09;7.65;;;5.60;;
67902;SDS011;54708;43.612;1.568;2023-12-07T02:40:35;11.05;;;6.97;;
67902;SDS011;54708;43.612;1.568;2023-12-07T02:43:00;12.57;;;6.60;;
67902;SDS011;54708;43.612;1.568;2023-12-07T02:45:26;9.35;;;6.40;;
67902;SDS011;54708;43.612;1.568;2023-12-07T02:47:52;9.23;;;5.90;;
67902;SDS011;54708;43.612;1.568;2023-12-07T02:50:18;11.52;;;7.72;;
67902;SDS011;54708;43.612;1.568;2023-12-07T02:52:44;13.55;;;7.05;;
67902;SDS011;54708;43.612;1.568;2023-12-07T02:55:09;12.60;;;5.68;;
67902;SDS011;54708;43.612;1.568;2023-12-07T02:57:35;10.45;;;6.68;;
67902;SDS011;54708;43.612;1.568;2023-12-07T03:00:00;13.20;;;6.53;;
67902;SDS011;54708;43.612;1.568;2023-12-07T03:02:31;12.88;;;7.82;;
67902;SDS011;54708;43.612;1.568;2023-12-07T03:04:57;10.15;;;6.18;;
67902;SDS011;54708;43.612;1.568;2023-12-07T03:07:22;10.40;;;6.25;;
67902;SDS011;54708;43.612;1.568;2023-12-07T03:09:48;8.10;;;5.68;;
67902;SDS011;54708;43.612;1.568;2023-12-07T03:12:13;11.00;;;7.13;;
67902;SDS011;54708;43.612;1.568;2023-12-07T03:14:38;8.38;;;5.63;;
67902;SDS011;54708;43.612;1.568;2023-12-07T03:17:04;10.60;;;6.10;;
67902;SDS011;54708;43.612;1.568;2023-12-07T03:19:29;11.30;;;6.68;;
67902;SDS011;54708;43.612;1.568;2023-12-07T03:21:55;8.18;;;5.65;;
67902;SDS011;54708;43.612;1.568;2023-12-07T03:24:20;11.32;;;5.93;;
67902;SDS011;54708;43.612;1.568;2023-12-07T03:26:45;9.02;;;6.18;;
67902;SDS011;54708;43.612;1.568;2023-12-07T03:29:11;9.13;;;5.90;;
67902;SDS011;54708;43.612;1.568;2023-12-07T03:31:36;9.35;;;5.72;;
67902;SDS011;54708;43.612;1.568;2023-12-07T03:34:01;10.27;;;5.03;;
67902;SDS011;54708;43.612;1.568;2023-12-07T03:36:28;9.48;;;5.15;;
67902;SDS011;54708;43.612;1.568;2023-12-07T03:38:53;8.13;;;4.40;;
67902;SDS011;54708;43.612;1.568;2023-12-07T03:41:19;6.05;;;4.45;;
67902;SDS011;54708;43.612;1.568;2023-12-07T03:43:44;9.27;;;4.72;;
67902;SDS011;54708;43.612;1.568;2023-12-07T03:46:10;6.80;;;4.18;;
67902;SDS011;54708;43.612;1.568;2023-12-07T03:48:35;9.40;;;4.57;;
67902;SDS011;54708;43.612;1.568;2023-12-07T03:51:01;5.70;;;4.13;;
67902;SDS011;54708;43.612;1.568;2023-12-07T03:53:26;6.15;;;4.00;;
67902;SDS011;54708;43.612;1.568;2023-12-07T03:55:52;7.85;;;4.57;;
67902;SDS011;54708;43.612;1.568;2023-12-07T03:58:18;5.88;;;4.10;;
67902;SDS011;54708;43.612;1.568;2023-12-07T04:00:44;5.97;;;3.65;;
67902;SDS011;54708;43.612;1.568;2023-12-07T04:03:09;9.48;;;3.88;;
67902;SDS011;54708;43.612;1.568;2023-12-07T04:05:34;5.03;;;4.03;;
67902;SDS011;54708;43.612;1.568;2023-12-07T04:08:00;7.60;;;4.10;;
67902;SDS011;54708;43.612;1.568;2023-12-07T04:10:25;7.53;;;4.70;;
67902;SDS011;54708;43.612;1.568;2023-12-07T04:12:51;6.80;;;4.35;;
67902;SDS011;54708;43.612;1.568;2023-12-07T04:15:19;11.13;;;5.55;;
67902;SDS011;54708;43.612;1.568;2023-12-07T04:17:45;6.60;;;4.15;;
67902;SDS011;54708;43.612;1.568;2023-12-07T04:20:11;8.98;;;4.93;;
67902;SDS011;54708;43.612;1.568;2023-12-07T04:22:36;7.47;;;4.65;;
67902;SDS011;54708;43.612;1.568;2023-12-07T04:25:01;4.97;;;3.35;;
67902;SDS011;54708;43.612;1.568;2023-12-07T04:27:27;7.00;;;3.88;;
67902;SDS011;54708;43.612;1.568;2023-12-07T04:29:52;7.75;;;3.67;;
67902;SDS011;54708;43.612;1.568;2023-12-07T04:32:18;6.13;;;3.58;;
67902;SDS011;54708;43.612;1.568;2023-12-07T04:34:43;7.40;;;3.25;;
67902;SDS011;54708;43.612;1.568;2023-12-07T04:37:08;4.68;;;3.40;;
67902;SDS011;54708;43.612;1.568;2023-12-07T04:39:35;7.50;;;3.45;;
67902;SDS011;54708;43.612;1.568;2023-12-07T04:42:01;6.05;;;3.65;;
67902;SDS011;54708;43.612;1.568;2023-12-07T04:44:26;5.65;;;3.25;;
67902;SDS011;54708;43.612;1.568;2023-12-07T04:46:51;5.93;;;3.55;;
67902;SDS011;54708;43.612;1.568;2023-12-07T04:49:17;9.60;;;3.40;;
67902;SDS011;54708;43.612;1.568;2023-12-07T04:51:42;4.97;;;3.22;;
67902;SDS011;54708;43.612;1.568;2023-12-07T04:54:11;7.03;;;3.83;;
67902;SDS011;54708;43.612;1.568;2023-12-07T04:56:37;4.72;;;3.17;;
67902;SDS011;54708;43.612;1.568;2023-12-07T04:59:02;5.07;;;3.17;;
67902;SDS011;54708;43.612;1.568;2023-12-07T05:01:28;6.30;;;3.53;;
67902;SDS011;54708;43.612;1.568;2023-12-07T05:03:53;6.20;;;3.78;;
67902;SDS011;54708;43.612;1.568;2023-12-07T05:06:18;6.22;;;3.33;;
67902;SDS011;54708;43.612;1.568;2023-12-07T05:08:44;13.80;;;4.40;;
67902;SDS011;54708;43.612;1.568;2023-12-07T05:11:09;6.38;;;2.78;;
67902;SDS011;54708;43.612;1.568;2023-12-07T05:13:34;8.55;;;3.22;;
67902;SDS011;54708;43.612;1.568;2023-12-07T05:16:00;6.93;;;3.78;;
67902;SDS011;54708;43.612;1.568;2023-12-07T05:18:26;3.38;;;3.05;;
67902;SDS011;54708;43.612;1.568;2023-12-07T05:20:51;4.50;;;3.17;;
67902;SDS011;54708;43.612;1.568;2023-12-07T05:23:16;5.57;;;2.80;;
67902;SDS011;54708;43.612;1.568;2023-12-07T05:25:42;7.57;;;3.50;;
67902;SDS011;54708;43.612;1.568;2023-12-07T05:28:08;5.38;;;2.97;;
67902;SDS011;54708;43.612;1.568;2023-12-07T05:30:34;5.18;;;3.20;;
67902;SDS011;54708;43.612;1.568;2023-12-07T05:32:59;8.10;;;3.92;;
67902;SDS011;54708;43.612;1.568;2023-12-07T05:35:24;7.32;;;3.65;;
67902;SDS011;54708;43.612;1.568;2023-12-07T05:37:50;4.20;;;3.53;;
67902;SDS011;54708;43.612;1.568;2023-12-07T05:40:15;4.22;;;2.85;;
67902;SDS011;54708;43.612;1.568;2023-12-07T05:42:41;4.13;;;2.95;;
67902;SDS011;54708;43.612;1.568;2023-12-07T05:45:06;9.60;;;3.83;;
67902;SDS011;54708;43.612;1.568;2023-12-07T05:47:32;6.93;;;3.63;;
67902;SDS011;54708;43.612;1.568;2023-12-07T05:49:57;4.95;;;3.50;;
67902;SDS011;54708;43.612;1.568;2023-12-07T05:52:25;3.80;;;2.70;;
67902;SDS011;54708;43.612;1.568;2023-12-07T05:54:50;4.72;;;3.83;;
67902;SDS011;54708;43.612;1.568;2023-12-07T05:57:15;5.50;;;3.53;;
67902;SDS011;54708;43.612;1.568;2023-12-07T05:59:41;14.35;;;3.13;;
67902;SDS011;54708;43.612;1.568;2023-12-07T06:02:08;5.13;;;2.60;;
67902;SDS011;54708;43.612;1.568;2023-12-07T06:04:33;4.35;;;2.88;;
67902;SDS011;54708;43.612;1.568;2023-12-07T06:06:59;6.15;;;3.08;;
67902;SDS011;54708;43.612;1.568;2023-12-07T06:09:24;3.72;;;2.50;;
67902;SDS011;54708;43.612;1.568;2023-12-07T06:11:49;4.25;;;2.90;;
67902;SDS011;54708;43.612;1.568;2023-12-07T06:14:15;4.65;;;2.47;;
67902;SDS011;54708;43.612;1.568;2023-12-07T06:16:40;6.00;;;3.20;;
67902;SDS011;54708;43.612;1.568;2023-12-07T06:19:05;10.15;;;3.75;;
67902;SDS011;54708;43.612;1.568;2023-12-07T06:21:31;9.10;;;4.13;;
67902;SDS011;54708;43.612;1.568;2023-12-07T06:23:56;4.05;;;3.63;;
67902;SDS011;54708;43.612;1.568;2023-12-07T06:26:23;7.63;;;2.90;;
67902;SDS011;54708;43.612;1.568;2023-12-07T06:28:49;5.85;;;2.65;;
67902;SDS011;54708;43.612;1.568;2023-12-07T06:31:14;7.57;;;2.58;;
67902;SDS011;54708;43.612;1.568;2023-12-07T06:33:41;3.70;;;2.15;;
67902;SDS011;54708;43.612;1.568;2023-12-07T06:36:06;3.47;;;2.42;;
67902;SDS011;54708;43.612;1.568;2023-12-07T06:38:32;5.32;;;3.00;;
67902;SDS011;54708;43.612;1.568;2023-12-07T06:40:57;7.85;;;2.92;;
67902;SDS011;54708;43.612;1.568;2023-12-07T06:43:23;5.97;;;2.50;;
67902;SDS011;54708;43.612;1.568;2023-12-07T06:45:48;6.65;;;3.60;;
67902;SDS011;54708;43.612;1.568;2023-12-07T06:48:14;7.15;;;3.42;;
67902;SDS011;54708;43.612;1.568;2023-12-07T06:50:39;8.73;;;3.92;;
67902;SDS011;54708;43.612;1.568;2023-12-07T06:53:04;10.32;;;3.25;;
67902;SDS011;54708;43.612;1.568;2023-12-07T06:55:30;3.47;;;2.97;;
67902;SDS011;54708;43.612;1.568;2023-12-07T06:57:55;6.95;;;3.38;;
67902;SDS011;54708;43.612;1.568;2023-12-07T07:00:21;7.95;;;4.20;;
67902;SDS011;54708;43.612;1.568;2023-12-07T07:02:46;4.47;;;3.20;;
67902;SDS011;54708;43.612;1.568;2023-12-07T07:05:12;13.00;;;3.45;;
67902;SDS011;54708;43.612;1.568;2023-12-07T07:07:40;6.25;;;3.22;;
67902;SDS011;54708;43.612;1.568;2023-12-07T07:10:23;5.20;;;2.67;;
67902;SDS011;54708;43.612;1.568;2023-12-07T07:12:49;4.30;;;2.45;;
67902;SDS011;54708;43.612;1.568;2023-12-07T07:15:15;6.88;;;4.10;;
67902;SDS011;54708;43.612;1.568;2023-12-07T07:17:40;10.23;;;4.53;;
67902;SDS011;54708;43.612;1.568;2023-12-07T07:20:06;8.35;;;5.05;;
67902;SDS011;54708;43.612;1.568;2023-12-07T07:22:31;7.55;;;3.83;;
67902;SDS011;54708;43.612;1.568;2023-12-07T07:24:57;7.10;;;3.40;;
67902;SDS011;54708;43.612;1.568;2023-12-07T07:27:22;7.90;;;2.92;;
67902;SDS011;54708;43.612;1.568;2023-12-07T07:29:48;6.75;;;2.25;;
67902;SDS011;54708;43.612;1.568;2023-12-07T07:32:13;5.47;;;2.47;;
67902;SDS011;54708;43.612;1.568;2023-12-07T07:34:38;7.18;;;2.60;;
67902;SDS011;54708;43.612;1.568;2023-12-07T07:37:04;5.18;;;2.80;;
67902;SDS011;54708;43.612;1.568;2023-12-07T07:39:32;3.83;;;2.65;;
67902;SDS011;54708;43.612;1.568;2023-12-07T07:41:57;4.90;;;2.42;;
67902;SDS011;54708;43.612;1.568;2023-12-07T07:44:22;4.63;;;2.88;;
67902;SDS011;54708;43.612;1.568;2023-12-07T07:46:48;2.97;;;2.58;;
67902;SDS011;54708;43.612;1.568;2023-12-07T07:49:13;4.25;;;2.33;;
67902;SDS011;54708;43.612;1.568;2023-12-07T07:51:39;7.57;;;2.72;;
67902;SDS011;54708;43.612;1.568;2023-12-07T07:54:04;9.90;;;3.88;;
67902;SDS011;54708;43.612;1.568;2023-12-07T07:56:29;8.18;;;3.60;;
67902;SDS011;54708;43.612;1.568;2023-12-07T07:58:55;5.82;;;2.78;;
67902;SDS011;54708;43.612;1.568;2023-12-07T08:01:20;8.32;;;2.85;;
67902;SDS011;54708;43.612;1.568;2023-12-07T08:03:46;4.82;;;2.45;;
67902;SDS011;54708;43.612;1.568;2023-12-07T08:06:11;5.15;;;2.83;;
67902;SDS011;54708;43.612;1.568;2023-12-07T08:08:36;4.85;;;2.90;;
67902;SDS011;54708;43.612;1.568;2023-12-07T08:11:02;6.50;;;2.50;;
67902;SDS011;54708;43.612;1.568;2023-12-07T08:13:27;5.10;;;2.55;;
67902;SDS011;54708;43.612;1.568;2023-12-07T08:15:52;4.40;;;2.10;;
67902;SDS011;54708;43.612;1.568;2023-12-07T08:18:18;9.65;;;5.55;;
67902;SDS011;54708;43.612;1.568;2023-12-07T08:20:44;13.75;;;7.03;;
67902;SDS011;54708;43.612;1.568;2023-12-07T08:23:09;12.18;;;7.30;;
67902;SDS011;54708;43.612;1.568;2023-12-07T08:25:35;11.82;;;4.75;;
67902;SDS011;54708;43.612;1.568;2023-12-07T08:28:01;16.30;;;4.35;;
67902;SDS011;54708;43.612;1.568;2023-12-07T08:30:26;17.02;;;3.83;;
67902;SDS011;54708;43.612;1.568;2023-12-07T08:32:52;9.95;;;5.00;;
67902;SDS011;54708;43.612;1.568;2023-12-07T08:35:17;9.98;;;3.10;;
67902;SDS011;54708;43.612;1.568;2023-12-07T08:37:42;5.63;;;2.88;;
67902;SDS011;54708;43.612;1.568;2023-12-07T08:40:08;5.03;;;2.70;;
67902;SDS011;54708;43.612;1.568;2023-12-07T08:42:36;7.45;;;2.83;;
67902;SDS011;54708;43.612;1.568;2023-12-07T08:45:01;9.23;;;2.65;;
67902;SDS011;54708;43.612;1.568;2023-12-07T08:47:27;8.20;;;3.78;;
67902;SDS011;54708;43.612;1.568;2023-12-07T08:49:55;3.95;;;2.92;;
67902;SDS011;54708;43.612;1.568;2023-12-07T08:52:20;7.38;;;2.83;;
67902;SDS011;54708;43.612;1.568;2023-12-07T08:54:45;5.20;;;3.15;;
67902;SDS011;54708;43.612;1.568;2023-12-07T08:57:11;14.63;;;5.25;;
67902;SDS011;54708;43.612;1.568;2023-12-07T08:59:37;4.13;;;3.00;;
67902;SDS011;54708;43.612;1.568;2023-12-07T09:02:03;7.45;;;3.95;;
67902;SDS011;54708;43.612;1.568;2023-12-07T09:04:29;6.30;;;3.45;;
67902;SDS011;54708;43.612;1.568;2023-12-07T09:06:54;3.60;;;3.13;;
67902;SDS011;54708;43.612;1.568;2023-12-07T09:09:19;15.43;;;3.42;;
67902;SDS011;54708;43.612;1.568;2023-12-07T09:11:45;4.05;;;2.55;;
67902;SDS011;54708;43.612;1.568;2023-12-07T09:14:11;5.85;;;2.75;;
67902;SDS011;54708;43.612;1.568;2023-12-07T09:16:42;14.57;;;3.70;;
67902;SDS011;54708;43.612;1.568;2023-12-07T09:19:08;5.50;;;2.92;;
67902;SDS011;54708;43.612;1.568;2023-12-07T09:21:34;25.60;;;4.63;;
67902;SDS011;54708;43.612;1.568;2023-12-07T09:24:00;12.35;;;5.57;;
67902;SDS011;54708;43.612;1.568;2023-12-07T09:26:25;7.72;;;3.42;;
67902;SDS011;54708;43.612;1.568;2023-12-07T09:28:50;4.68;;;3.03;;
67902;SDS011;54708;43.612;1.568;2023-12-07T09:31:16;4.32;;;3.00;;
67902;SDS011;54708;43.612;1.568;2023-12-07T09:33:41;6.00;;;3.28;;
67902;SDS011;54708;43.612;1.568;2023-12-07T09:36:07;3.80;;;2.53;;
67902;SDS011;54708;43.612;1.568;2023-12-07T09:38:34;6.03;;;3.17;;
67902;SDS011;54708;43.612;1.568;2023-12-07T09:41:02;3.30;;;2.70;;
67902;SDS011;54708;43.612;1.568;2023-12-07T09:43:27;5.13;;;3.30;;
67902;SDS011;54708;43.612;1.568;2023-12-07T09:45:52;6.50;;;3.38;;
67902;SDS011;54708;43.612;1.568;2023-12-07T09:48:19;3.35;;;2.13;;
67902;SDS011;54708;43.612;1.568;2023-12-07T09:50:46;5.35;;;2.45;;
67902;SDS011;54708;43.612;1.568;2023-12-07T09:53:11;3.80;;;2.45;;
67902;SDS011;54708;43.612;1.568;2023-12-07T09:55:37;4.15;;;2.25;;
67902;SDS011;54708;43.612;1.568;2023-12-07T09:58:06;2.67;;;2.15;;
67902;SDS011;54708;43.612;1.568;2023-12-07T10:00:31;3.25;;;2.58;;
67902;SDS011;54708;43.612;1.568;2023-12-07T10:02:58;4.43;;;2.20;;
67902;SDS011;54708;43.612;1.568;2023-12-07T10:05:23;3.55;;;2.25;;
67902;SDS011;54708;43.612;1.568;2023-12-07T10:07:49;2.42;;;2.08;;
67902;SDS011;54708;43.612;1.568;2023-12-07T10:10:15;4.45;;;2.72;;
67902;SDS011;54708;43.612;1.568;2023-12-07T10:15:14;3.37;;;2.07;;
67902;SDS011;54708;43.612;1.568;2023-12-07T10:17:57;6.07;;;3.17;;
67902;SDS011;54708;43.612;1.568;2023-12-07T10:20:24;5.97;;;2.30;;
67902;SDS011;54708;43.612;1.568;2023-12-07T10:23:11;2.75;;;2.35;;
67902;SDS011;54708;43.612;1.568;2023-12-07T10:25:40;4.22;;;2.58;;
67902;SDS011;54708;43.612;1.568;2023-12-07T10:28:09;4.30;;;1.80;;
67902;SDS011;54708;43.612;1.568;2023-12-07T10:30:37;2.88;;;1.83;;
67902;SDS011;54708;43.612;1.568;2023-12-07T10:33:03;2.67;;;1.65;;
67902;SDS011;54708;43.612;1.568;2023-12-07T10:35:30;2.85;;;1.48;;
67902;SDS011;54708;43.612;1.568;2023-12-07T10:37:56;3.10;;;2.05;;
67902;SDS011;54708;43.612;1.568;2023-12-07T10:40:23;1.98;;;1.45;;
67902;SDS011;54708;43.612;1.568;2023-12-07T10:42:48;2.72;;;1.52;;
67902;SDS011;54708;43.612;1.568;2023-12-07T10:45:14;1.60;;;1.45;;
67902;SDS011;54708;43.612;1.568;2023-12-07T10:47:40;2.17;;;1.75;;
67902;SDS011;54708;43.612;1.568;2023-12-07T10:50:09;4.18;;;1.60;;
67902;SDS011;54708;43.612;1.568;2023-12-07T10:52:45;1.55;;;1.42;;
67902;SDS011;54708;43.612;1.568;2023-12-07T10:55:17;4.05;;;1.70;;
67902;SDS011;54708;43.612;1.568;2023-12-07T10:57:45;1.13;;;1.02;;
67902;SDS011;54708;43.612;1.568;2023-12-07T11:00:12;2.97;;;1.25;;
67902;SDS011;54708;43.612;1.568;2023-12-07T11:02:37;3.58;;;1.60;;
67902;SDS011;54708;43.612;1.568;2023-12-07T11:05:04;3.53;;;1.40;;
67902;SDS011;54708;43.612;1.568;2023-12-07T11:07:42;5.22;;;1.85;;
67902;SDS011;54708;43.612;1.568;2023-12-07T11:10:14;5.22;;;2.17;;
67902;SDS011;54708;43.612;1.568;2023-12-07T11:12:45;2.90;;;1.67;;
67902;SDS011;54708;43.612;1.568;2023-12-07T11:15:15;3.22;;;1.30;;
67902;SDS011;54708;43.612;1.568;2023-12-07T11:17:51;1.90;;;1.55;;
67902;SDS011;54708;43.612;1.568;2023-12-07T11:20:18;2.75;;;2.00;;
67902;SDS011;54708;43.612;1.568;2023-12-07T11:22:46;3.90;;;2.10;;
67902;SDS011;54708;43.612;1.568;2023-12-07T11:25:14;3.05;;;1.48;;
67902;SDS011;54708;43.612;1.568;2023-12-07T11:27:39;4.30;;;1.77;;
67902;SDS011;54708;43.612;1.568;2023-12-07T11:30:06;3.13;;;1.83;;
67902;SDS011;54708;43.612;1.568;2023-12-07T11:32:32;2.40;;;1.63;;
67902;SDS011;54708;43.612;1.568;2023-12-07T11:35:07;2.42;;;1.67;;
67902;SDS011;54708;43.612;1.568;2023-12-07T11:40:42;2.53;;;1.85;;
67902;SDS011;54708;43.612;1.568;2023-12-07T11:43:08;2.15;;;1.83;;
67902;SDS011;54708;43.612;1.568;2023-12-07T11:45:49;3.00;;;1.80;;
67902;SDS011;54708;43.612;1.568;2023-12-07T11:48:34;3.28;;;1.63;;
67902;SDS011;54708;43.612;1.568;2023-12-07T11:51:00;1.83;;;1.70;;
67902;SDS011;54708;43.612;1.568;2023-12-07T11:53:28;4.32;;;2.40;;
67902;SDS011;54708;43.612;1.568;2023-12-07T11:55:55;6.03;;;1.42;;
67902;SDS011;54708;43.612;1.568;2023-12-07T11:58:22;4.03;;;2.45;;
67902;SDS011;54708;43.612;1.568;2023-12-07T12:00:50;2.25;;;2.03;;
67902;SDS011;54708;43.612;1.568;2023-12-07T12:03:16;3.47;;;1.55;;
67902;SDS011;54708;43.612;1.568;2023-12-07T12:05:42;2.55;;;1.33;;
67902;SDS011;54708;43.612;1.568;2023-12-07T12:08:08;3.13;;;1.45;;
67902;SDS011;54708;43.612;1.568;2023-12-07T12:10:33;3.38;;;1.38;;
67902;SDS011;54708;43.612;1.568;2023-12-07T12:13:02;2.47;;;1.23;;
67902;SDS011;54708;43.612;1.568;2023-12-07T12:15:28;2.40;;;1.65;;
67902;SDS011;54708;43.612;1.568;2023-12-07T12:17:55;1.20;;;1.20;;
67902;SDS011;54708;43.612;1.568;2023-12-07T12:20:21;3.63;;;1.58;;
67902;SDS011;54708;43.612;1.568;2023-12-07T12:22:47;1.98;;;1.48;;
67902;SDS011;54708;43.612;1.568;2023-12-07T12:25:12;4.78;;;1.70;;
67902;SDS011;54708;43.612;1.568;2023-12-07T12:27:38;1.80;;;1.45;;
67902;SDS011;54708;43.612;1.568;2023-12-07T12:30:04;2.75;;;1.67;;
67902;SDS011;54708;43.612;1.568;2023-12-07T12:32:49;2.85;;;1.75;;
67902;SDS011;54708;43.612;1.568;2023-12-07T12:35:15;1.95;;;1.77;;
67902;SDS011;54708;43.612;1.568;2023-12-07T12:37:41;3.20;;;1.63;;
67902;SDS011;54708;43.612;1.568;2023-12-07T12:40:08;2.63;;;1.70;;
67902;SDS011;54708;43.612;1.568;2023-12-07T12:42:35;2.53;;;1.50;;
67902;SDS011;54708;43.612;1.568;2023-12-07T12:45:02;6.15;;;2.47;;
67902;SDS011;54708;43.612;1.568;2023-12-07T12:47:29;2.28;;;1.73;;
67902;SDS011;54708;43.612;1.568;2023-12-07T12:49:54;5.38;;;1.98;;
67902;SDS011;54708;43.612;1.568;2023-12-07T12:52:19;2.88;;;1.15;;
67902;SDS011;54708;43.612;1.568;2023-12-07T12:54:45;2.83;;;1.40;;
67902;SDS011;54708;43.612;1.568;2023-12-07T12:57:12;2.42;;;1.75;;
67902;SDS011;54708;43.612;1.568;2023-12-07T12:59:39;3.92;;;1.90;;
67902;SDS011;54708;43.612;1.568;2023-12-07T13:02:04;3.58;;;1.95;;
67902;SDS011;54708;43.612;1.568;2023-12-07T13:04:30;2.85;;;1.35;;
67902;SDS011;54708;43.612;1.568;2023-12-07T13:06:55;3.03;;;2.03;;
67902;SDS011;54708;43.612;1.568;2023-12-07T13:09:21;4.10;;;1.98;;
67902;SDS011;54708;43.612;1.568;2023-12-07T13:11:46;3.60;;;1.83;;
67902;SDS011;54708;43.612;1.568;2023-12-07T13:14:12;2.58;;;1.70;;
67902;SDS011;54708;43.612;1.568;2023-12-07T13:16:38;3.40;;;1.77;;
67902;SDS011;54708;43.612;1.568;2023-12-07T13:19:03;1.92;;;1.80;;
67902;SDS011;54708;43.612;1.568;2023-12-07T13:21:28;2.25;;;1.23;;
67902;SDS011;54708;43.612;1.568;2023-12-07T13:23:54;2.08;;;1.85;;
67902;SDS011;54708;43.612;1.568;2023-12-07T13:26:19;2.45;;;1.75;;
67902;SDS011;54708;43.612;1.568;2023-12-07T13:28:48;6.03;;;2.50;;
67902;SDS011;54708;43.612;1.568;2023-12-07T13:31:13;2.90;;;1.80;;
67902;SDS011;54708;43.612;1.568;2023-12-07T13:33:39;2.33;;;1.42;;
67902;SDS011;54708;43.612;1.568;2023-12-07T13:36:05;3.65;;;1.55;;
67902;SDS011;54708;43.612;1.568;2023-12-07T13:38:31;5.07;;;1.73;;
67902;SDS011;54708;43.612;1.568;2023-12-07T13:40:56;2.55;;;1.80;;
67902;SDS011;54708;43.612;1.568;2023-12-07T13:43:22;1.88;;;1.67;;
67902;SDS011;54708;43.612;1.568;2023-12-07T13:45:49;5.97;;;1.90;;
67902;SDS011;54708;43.612;1.568;2023-12-07T13:48:15;4.53;;;1.95;;
67902;SDS011;54708;43.612;1.568;2023-12-07T13:50:40;4.00;;;2.22;;
67902;SDS011;54708;43.612;1.568;2023-12-07T13:53:06;5.20;;;2.05;;
67902;SDS011;54708;43.612;1.568;2023-12-07T13:55:35;6.32;;;1.98;;
67902;SDS011;54708;43.612;1.568;2023-12-07T13:58:04;5.97;;;2.10;;
67902;SDS011;54708;43.612;1.568;2023-12-07T14:00:31;3.28;;;2.30;;
67902;SDS011;54708;43.612;1.568;2023-12-07T14:02:57;5.88;;;2.05;;
67902;SDS011;54708;43.612;1.568;2023-12-07T14:05:22;4.53;;;2.00;;
67902;SDS011;54708;43.612;1.568;2023-12-07T14:07:49;3.10;;;2.05;;
67902;SDS011;54708;43.612;1.568;2023-12-07T14:10:15;2.15;;;1.50;;
67902;SDS011;54708;43.612;1.568;2023-12-07T14:12:40;3.20;;;1.88;;
67902;SDS011;54708;43.612;1.568;2023-12-07T14:15:06;2.03;;;1.85;;
67902;SDS011;54708;43.612;1.568;2023-12-07T14:17:32;4.05;;;2.20;;
67902;SDS011;54708;43.612;1.568;2023-12-07T14:20:03;2.88;;;2.60;;
67902;SDS011;54708;43.612;1.568;2023-12-07T14:22:32;4.03;;;2.30;;
67902;SDS011;54708;43.612;1.568;2023-12-07T14:24:58;3.03;;;2.20;;
67902;SDS011;54708;43.612;1.568;2023-12-07T14:27:24;5.57;;;2.25;;
67902;SDS011;54708;43.612;1.568;2023-12-07T14:29:49;3.47;;;2.22;;
67902;SDS011;54708;43.612;1.568;2023-12-07T14:32:15;2.65;;;2.33;;
67902;SDS011;54708;43.612;1.568;2023-12-07T14:34:40;3.67;;;2.25;;
67902;SDS011;54708;43.612;1.568;2023-12-07T14:37:06;5.80;;;2.75;;
67902;SDS011;54708;43.612;1.568;2023-12-07T14:39:33;2.13;;;1.90;;
67902;SDS011;54708;43.612;1.568;2023-12-07T14:41:59;3.25;;;2.45;;
67902;SDS011;54708;43.612;1.568;2023-12-07T14:44:24;4.57;;;2.20;;
67902;SDS011;54708;43.612;1.568;2023-12-07T14:46:50;6.13;;;2.78;;
67902;SDS011;54708;43.612;1.568;2023-12-07T14:49:16;5.70;;;2.60;;